Time;durP1;ratioP1;P1;durP2;ratioP2;P2;SDS_P1;SDS_P2;PMS_P1;PMS_P2;Temp;Humidity;BMP_temperature;BMP_pressure;BME280_temperature;BME280_humidity;BME280_pressure;Samples;Min_cycle;Max_cycle;Signal;HPM_P1;HPM_P2
2022/06/06 00:00:51;;;;;;;6.50;3.20;;;14.20;99.90;;;;;;5069175;28;20047;-72
2022/06/06 00:03:19;;;;;;;4.57;3.00;;;14.10;99.90;;;;;;5066101;28;20036;-73
2022/06/06 00:05:47;;;;;;;10.55;3.38;;;14.10;99.90;;;;;;5067662;28;20485;-70
2022/06/06 00:08:14;;;;;;;6.05;3.30;;;14.20;99.90;;;;;;5041412;28;20382;-70
2022/06/06 00:10:41;;;;;;;6.93;3.20;;;14.20;99.90;;;;;;5069950;28;20105;-70
2022/06/06 00:13:09;;;;;;;9.02;3.38;;;14.20;99.90;;;;;;5069595;28;20378;-71
2022/06/06 00:15:34;;;;;;;13.02;3.80;;;14.20;99.90;;;;;;5065057;28;20043;-70
2022/06/06 00:18:01;;;;;;;8.35;3.15;;;14.20;99.90;;;;;;5062090;28;20165;-74
2022/06/06 00:20:27;;;;;;;4.53;2.83;;;14.20;99.90;;;;;;5062317;28;20036;-71
2022/06/06 00:22:53;;;;;;;7.32;2.40;;;14.00;99.90;;;;;;5068089;28;20035;-71
2022/06/06 00:25:18;;;;;;;4.28;2.20;;;13.90;99.90;;;;;;5068904;28;20082;-73
2022/06/06 00:27:44;;;;;;;5.32;2.50;;;13.70;99.90;;;;;;5067662;28;20036;-71
2022/06/06 00:30:10;;;;;;;5.28;2.75;;;13.60;99.90;;;;;;5039511;28;20526;-71
2022/06/06 00:35:21;;;;;;;8.73;3.72;;;13.70;99.90;;;;;;5067809;28;20121;-73
2022/06/06 00:37:47;;;;;;;7.70;4.13;;;13.90;99.90;;;;;;5066105;28;20467;-72
2022/06/06 00:40:17;;;;;;;6.47;3.88;;;13.90;99.90;;;;;;5067589;28;20039;-71
2022/06/06 00:42:43;;;;;;;6.45;3.50;;;14.00;99.90;;;;;;5066348;28;20025;-71
2022/06/06 00:45:21;;;;;;;8.98;4.20;;;14.00;99.90;;;;;;5068635;28;20024;-71
2022/06/06 00:47:52;;;;;;;7.43;4.15;;;14.10;99.90;;;;;;5068622;28;20024;-71
2022/06/06 00:50:24;;;;;;;9.68;4.30;;;14.20;99.90;;;;;;5050940;28;20458;-72
2022/06/06 00:52:52;;;;;;;7.25;3.28;;;14.10;99.90;;;;;;5068402;28;20800;-73
2022/06/06 00:55:23;;;;;;;6.25;3.58;;;14.00;99.90;;;;;;5065403;28;20029;-72
2022/06/06 00:58:00;;;;;;;;;;;13.90;99.90;;;;;;5067920;28;20030;-70
2022/06/06 01:00:26;;;;;;;11.88;3.50;;;13.90;99.90;;;;;;5052218;28;19920;-71
2022/06/06 01:02:56;;;;;;;7.13;4.07;;;13.90;99.90;;;;;;5068478;28;20536;-71
2022/06/06 01:05:24;;;;;;;7.00;3.85;;;13.90;99.90;;;;;;5068256;28;20437;-73
2022/06/06 01:07:49;;;;;;;7.40;4.07;;;14.00;99.90;;;;;;5066856;28;20078;-71
2022/06/06 01:10:16;;;;;;;6.05;3.80;;;14.00;99.90;;;;;;5069486;28;20441;-72
2022/06/06 01:12:44;;;;;;;10.95;4.07;;;14.00;99.90;;;;;;5067270;28;20082;-71
2022/06/06 01:15:14;;;;;;;11.88;4.00;;;14.10;99.90;;;;;;5069000;28;20457;-71
2022/06/06 01:18:31;;;;;;;5.25;3.05;;;14.10;99.90;;;;;;5046293;28;20379;-71
2022/06/06 01:21:07;;;;;;;5.35;3.47;;;14.00;99.90;;;;;;5029552;28;20101;-72
2022/06/06 01:23:42;;;;;;;9.30;3.75;;;14.00;99.90;;;;;;5064824;28;20447;-69
2022/06/06 01:26:30;;;;;;;8.60;4.05;;;14.00;99.90;;;;;;5065474;28;20489;-68
2022/06/06 01:29:16;;;;;;;6.45;4.13;;;14.00;99.90;;;;;;5049916;28;20102;-69
2022/06/06 01:31:57;;;;;;;9.55;3.90;;;13.90;99.90;;;;;;5065995;28;20047;-69
2022/06/06 01:34:36;;;;;;;6.60;3.88;;;13.90;99.90;;;;;;5060447;28;20025;-71
2022/06/06 01:37:04;;;;;;;6.07;3.88;;;13.80;99.90;;;;;;5053966;28;20033;-70
2022/06/06 01:39:32;;;;;;;7.63;4.22;;;13.80;99.90;;;;;;5063382;28;20745;-69
2022/06/06 01:42:31;;;;;;;6.20;3.72;;;13.80;99.90;;;;;;5064104;28;20032;-69
2022/06/06 01:45:00;;;;;;;8.77;4.03;;;13.80;99.90;;;;;;5065457;28;20036;-70
2022/06/06 01:47:31;;;;;;;7.13;4.18;;;13.80;99.90;;;;;;5062565;28;20051;-71
2022/06/06 01:49:58;;;;;;;6.55;4.05;;;13.70;99.90;;;;;;5062806;28;20086;-69
2022/06/06 01:52:25;;;;;;;8.98;4.50;;;13.80;99.90;;;;;;5065695;28;20497;-71
2022/06/06 01:54:56;;;;;;;7.43;3.90;;;13.70;99.90;;;;;;5064418;28;20048;-71
2022/06/06 01:57:23;;;;;;;9.63;4.30;;;13.70;99.90;;;;;;5059260;28;20116;-69
2022/06/06 01:59:51;;;;;;;9.32;4.65;;;13.70;99.90;;;;;;5058022;28;20033;-69
2022/06/06 02:02:16;;;;;;;8.73;4.82;;;13.70;99.90;;;;;;5067033;28;20382;-69
2022/06/06 02:04:42;;;;;;;10.02;4.72;;;13.70;99.90;;;;;;5047483;28;20037;-69
2022/06/06 02:07:08;;;;;;;8.20;4.40;;;13.70;99.90;;;;;;5068492;28;20158;-69
2022/06/06 02:09:33;;;;;;;8.05;4.38;;;13.70;99.90;;;;;;5063416;28;20029;-68
2022/06/06 02:12:00;;;;;;;7.03;4.53;;;13.70;99.90;;;;;;5062084;28;20047;-68
2022/06/06 02:14:26;;;;;;;13.52;4.50;;;13.70;99.90;;;;;;5066604;28;20029;-71
2022/06/06 02:16:52;;;;;;;7.57;4.93;;;13.80;99.90;;;;;;5064077;28;20040;-71
2022/06/06 02:19:18;;;;;;;8.80;4.60;;;13.80;99.90;;;;;;5059814;28;20040;-71
2022/06/06 02:21:44;;;;;;;16.17;4.20;;;13.80;99.90;;;;;;5066087;28;20386;-70
2022/06/06 02:24:10;;;;;;;10.43;4.43;;;13.70;99.90;;;;;;5043449;28;20114;-71
2022/06/06 02:26:35;;;;;;;9.00;4.45;;;13.70;99.90;;;;;;5064101;28;20044;-71
2022/06/06 02:29:02;;;;;;;6.50;3.97;;;13.70;99.90;;;;;;5067401;28;20105;-71
2022/06/06 02:31:28;;;;;;;8.20;4.22;;;13.70;99.90;;;;;;5062741;28;20117;-73
2022/06/06 02:33:54;;;;;;;7.88;4.55;;;13.60;99.90;;;;;;5037074;28;20024;-71
2022/06/06 02:36:20;;;;;;;7.43;4.50;;;13.60;99.90;;;;;;5066384;28;20583;-70
2022/06/06 02:38:45;;;;;;;7.65;3.88;;;13.60;99.90;;;;;;5066543;28;20033;-70
2022/06/06 02:41:11;;;;;;;7.80;4.38;;;13.60;99.90;;;;;;5047668;28;20124;-71
2022/06/06 02:43:39;;;;;;;7.18;3.67;;;13.50;99.90;;;;;;5065125;28;20025;-69
2022/06/06 02:46:06;;;;;;;10.45;5.05;;;13.50;99.90;;;;;;5061640;28;20099;-70
2022/06/06 02:48:33;;;;;;;9.43;5.20;;;13.50;99.90;;;;;;5062559;28;20052;-69
2022/06/06 02:51:02;;;;;;;9.27;4.30;;;13.50;99.90;;;;;;5068156;28;20787;-69
2022/06/06 02:53:28;;;;;;;8.73;4.05;;;13.40;99.90;;;;;;5065118;28;20078;-71
2022/06/06 02:55:55;;;;;;;10.60;4.78;;;13.50;99.90;;;;;;5062935;28;20028;-69
2022/06/06 02:58:22;;;;;;;9.60;4.60;;;13.50;99.90;;;;;;5065985;28;20457;-69
2022/06/06 03:00:48;;;;;;;10.02;4.60;;;13.50;99.90;;;;;;5063125;28;20025;-70
2022/06/06 03:03:15;;;;;;;8.10;4.57;;;13.50;99.90;;;;;;5065900;28;20084;-70
2022/06/06 03:06:00;;;;;;;8.95;4.32;;;13.60;99.90;;;;;;5064890;28;20438;-69
2022/06/06 03:08:59;;;;;;;9.52;4.63;;;13.60;99.90;;;;;;5047023;28;20425;-69
2022/06/06 03:11:48;;;;;;;9.32;4.90;;;13.60;99.90;;;;;;5061578;28;20036;-69
2022/06/06 03:14:28;;;;;;;8.32;4.90;;;13.60;99.90;;;;;;5039670;28;20037;-69
2022/06/06 03:23:06;;;;;;;7.75;4.82;;;13.60;99.90;;;;;;5069879;28;20036;-70
2022/06/06 03:26:11;;;;;;;8.60;4.65;;;13.60;99.90;;;;;;5068452;28;20477;-71
2022/06/06 03:28:57;;;;;;;8.23;4.57;;;13.70;99.90;;;;;;5057616;28;20035;-69
2022/06/06 03:31:35;;;;;;;8.25;5.05;;;13.70;99.90;;;;;;5061889;28;20082;-69
2022/06/06 03:34:20;;;;;;;7.80;4.40;;;13.80;99.90;;;;;;5068752;28;20028;-70
2022/06/06 03:36:59;;;;;;;10.75;5.50;;;13.70;99.90;;;;;;5068770;28;20056;-70
2022/06/06 03:39:47;;;;;;;12.85;4.15;;;13.50;99.90;;;;;;5064989;28;20445;-70
2022/06/06 03:42:38;;;;;;;11.02;4.35;;;13.40;99.90;;;;;;5063650;28;20058;-70
2022/06/06 03:45:38;;;;;;;6.70;4.25;;;13.40;99.90;;;;;;5060903;28;20032;-69
2022/06/06 03:48:29;;;;;;;7.50;4.23;;;13.50;99.90;;;;;;5063709;28;20031;-69
2022/06/06 03:51:01;;;;;;;8.95;4.97;;;13.50;99.90;;;;;;5067686;28;20289;-69
2022/06/06 03:53:55;;;;;;;6.70;4.30;;;13.60;99.90;;;;;;5070935;28;20078;-69
2022/06/06 03:56:33;;;;;;;8.45;4.68;;;13.60;99.90;;;;;;5059888;28;20040;-69
2022/06/06 03:58:59;;;;;;;9.98;4.90;;;13.70;99.90;;;;;;5068750;28;20029;-69
2022/06/06 04:01:26;;;;;;;8.05;4.97;;;13.70;99.90;;;;;;5069345;28;20660;-69
2022/06/06 04:03:54;;;;;;;11.45;5.43;;;13.80;99.90;;;;;;5067954;28;20675;-69
2022/06/06 04:06:20;;;;;;;10.65;5.47;;;13.90;99.90;;;;;;5071041;28;20028;-70
2022/06/06 04:08:46;;;;;;;11.13;5.63;;;14.00;99.90;;;;;;5067038;28;20671;-70
2022/06/06 04:11:26;;;;;;;10.88;4.72;;;14.10;99.90;;;;;;5067830;28;20390;-70
2022/06/06 04:14:08;;;;;;;14.20;5.60;;;14.20;99.90;;;;;;5068623;28;20032;-69
2022/06/06 04:17:01;;;;;;;8.75;4.90;;;14.20;99.90;;;;;;5067843;28;20040;-71
2022/06/06 04:19:40;;;;;;;10.57;4.88;;;14.30;99.90;;;;;;5066116;28;20032;-69
2022/06/06 04:22:22;;;;;;;7.90;5.28;;;14.30;99.90;;;;;;5051002;28;20028;-69
2022/06/06 04:25:13;;;;;;;6.35;4.13;;;14.30;99.90;;;;;;5049083;28;20090;-70
2022/06/06 04:27:52;;;;;;;9.30;5.07;;;14.40;99.90;;;;;;5064407;28;20033;-71
2022/06/06 04:30:35;;;;;;;7.72;4.85;;;14.30;99.90;;;;;;5068995;28;20115;-69
2022/06/06 04:33:06;;;;;;;6.05;4.13;;;14.40;99.90;;;;;;5066000;28;20051;-70
2022/06/06 04:35:42;;;;;;;6.65;3.47;;;14.40;99.90;;;;;;5067072;28;20154;-71
2022/06/06 04:38:28;;;;;;;4.72;3.20;;;14.40;99.90;;;;;;5067294;28;20394;-69
2022/06/06 04:41:06;;;;;;;5.88;3.05;;;14.40;99.90;;;;;;5065727;28;20056;-69
2022/06/06 04:43:53;;;;;;;5.03;3.38;;;14.30;99.90;;;;;;5068403;28;20033;-69
2022/06/06 04:46:37;;;;;;;5.30;3.50;;;14.30;99.90;;;;;;5067518;28;20405;-70
2022/06/06 04:49:04;;;;;;;6.32;3.90;;;14.30;99.90;;;;;;5065086;28;20032;-69
2022/06/06 04:51:33;;;;;;;7.03;4.30;;;14.50;99.90;;;;;;5069137;28;20032;-69
2022/06/06 04:53:59;;;;;;;10.63;4.82;;;14.50;99.90;;;;;;5063744;28;20032;-69
2022/06/06 04:56:26;;;;;;;6.88;3.97;;;14.60;99.90;;;;;;5063900;28;20033;-69
2022/06/06 04:58:55;;;;;;;9.90;5.03;;;14.70;99.90;;;;;;5063565;28;20136;-70
2022/06/06 05:01:23;;;;;;;7.55;4.60;;;14.70;99.90;;;;;;5067830;28;20029;-71
2022/06/06 05:03:49;;;;;;;9.10;4.60;;;14.90;99.90;;;;;;5063840;28;20033;-70
2022/06/06 05:06:17;;;;;;;6.28;4.18;;;15.10;99.90;;;;;;5051572;28;20081;-71
2022/06/06 05:08:54;;;;;;;7.20;3.80;;;15.30;99.90;;;;;;5060528;28;20469;-71
2022/06/06 05:11:43;;;;;;;6.35;3.55;;;15.40;99.90;;;;;;5060558;28;20760;-70
2022/06/06 05:14:19;;;;;;;6.05;4.03;;;15.50;99.90;;;;;;5053259;28;20056;-70
2022/06/06 05:17:01;;;;;;;7.07;4.47;;;15.30;99.90;;;;;;5066907;28;20033;-69
2022/06/06 05:19:48;;;;;;;9.07;4.45;;;15.30;99.90;;;;;;5068655;28;20525;-71
2022/06/06 05:22:32;;;;;;;10.30;4.35;;;15.30;99.90;;;;;;5057928;28;20082;-69
2022/06/06 05:25:16;;;;;;;8.77;4.00;;;15.50;99.90;;;;;;5060816;28;20020;-70
2022/06/06 05:28:31;;;;;;;6.38;3.70;;;15.50;99.90;;;;;;5065768;28;20029;-69
2022/06/06 05:31:03;;;;;;;11.88;4.22;;;15.60;99.90;;;;;;4984993;28;20054;-70
2022/06/06 05:33:37;;;;;;;10.07;4.20;;;15.70;99.90;;;;;;5053632;28;20060;-70
2022/06/06 05:36:10;;;;;;;8.52;3.85;;;15.70;99.90;;;;;;5059883;28;20025;-70
2022/06/06 05:39:07;;;;;;;5.30;3.63;;;15.80;99.90;;;;;;5066338;28;20055;-70
2022/06/06 05:41:56;;;;;;;7.43;4.32;;;15.80;99.90;;;;;;5048374;28;20043;-69
2022/06/06 05:44:52;;;;;;;8.95;5.40;;;15.90;99.90;;;;;;5054746;28;20490;-69
2022/06/06 05:47:43;;;;;;;7.93;4.72;;;16.00;99.90;;;;;;5067777;28;20032;-70
2022/06/06 05:50:38;;;;;;;6.78;4.57;;;16.10;99.90;;;;;;5067375;28;20157;-70
2022/06/06 05:53:30;;;;;;;7.78;4.32;;;16.20;99.90;;;;;;5064499;28;20122;-70
2022/06/06 05:56:02;;;;;;;9.70;4.63;;;16.50;99.90;;;;;;5064608;28;20453;-69
2022/06/06 05:58:55;;;;;;;8.15;4.60;;;16.70;99.90;;;;;;5034927;28;20040;-69
2022/06/06 06:01:32;;;;;;;7.50;4.80;;;16.90;99.90;;;;;;5050676;28;20032;-69
2022/06/06 06:04:18;;;;;;;8.15;4.20;;;17.10;99.90;;;;;;5059864;28;20036;-70
2022/06/06 06:07:33;;;;;;;8.95;4.43;;;17.00;99.90;;;;;;5062528;28;20394;-70
2022/06/06 06:10:15;;;;;;;5.57;4.20;;;16.80;99.90;;;;;;5023097;28;20025;-69
2022/06/06 06:13:01;;;;;;;8.30;4.78;;;16.70;99.90;;;;;;5065733;28;20066;-73
2022/06/06 06:15:37;;;;;;;10.85;4.43;;;16.60;99.90;;;;;;5069092;28;20041;-72
2022/06/06 06:18:09;;;;;;;7.95;4.80;;;16.70;99.90;;;;;;5064618;28;20044;-72
2022/06/06 06:20:41;;;;;;;12.70;4.65;;;16.70;99.90;;;;;;5052649;28;20032;-69
2022/06/06 06:23:11;;;;;;;8.98;4.53;;;16.80;99.90;;;;;;5062250;28;20037;-69
2022/06/06 06:25:39;;;;;;;10.98;5.60;;;16.80;99.90;;;;;;5058156;28;20040;-69
2022/06/06 06:28:12;;;;;;;10.63;4.97;;;17.00;99.90;;;;;;5066627;28;20127;-70
2022/06/06 06:31:19;;;;;;;6.65;4.30;;;17.10;99.90;;;;;;5063766;28;20029;-70
2022/06/06 06:33:56;;;;;;;8.45;4.38;;;17.10;99.90;;;;;;5064411;28;20041;-71
2022/06/06 06:36:39;;;;;;;7.93;4.82;;;17.10;99.90;;;;;;5065179;28;20037;-70
2022/06/06 06:39:33;;;;;;;9.00;4.75;;;17.10;99.90;;;;;;5056030;28;20035;-70
2022/06/06 06:42:13;;;;;;;10.65;4.55;;;17.10;99.90;;;;;;5064710;28;20077;-70
2022/06/06 06:44:46;;;;;;;11.55;4.68;;;17.10;99.90;;;;;;5061467;28;20471;-70
2022/06/06 06:47:19;;;;;;;7.85;4.70;;;17.20;99.90;;;;;;5057062;28;20040;-70
2022/06/06 06:49:47;;;;;;;7.57;4.70;;;17.20;99.90;;;;;;5063338;28;20573;-70
2022/06/06 06:52:50;;;;;;;11.55;5.35;;;17.10;99.90;;;;;;5048707;28;20033;-70
2022/06/06 06:55:37;;;;;;;12.77;5.07;;;17.20;99.90;;;;;;5066659;28;20055;-70
2022/06/06 06:58:25;;;;;;;9.13;4.90;;;17.50;99.90;;;;;;5059950;28;20040;-70
2022/06/06 07:01:00;;;;;;;10.40;4.55;;;17.80;99.90;;;;;;5054952;28;20032;-69
2022/06/06 07:09:33;;;;;;;8.27;4.90;;;18.10;99.90;;;;;;5058715;28;20145;-71
2022/06/06 07:12:19;;;;;;;9.25;5.30;;;17.90;99.90;;;;;;5054363;28;20119;-71
2022/06/06 07:15:06;;;;;;;8.32;4.97;;;17.90;99.90;;;;;;5058890;28;20032;-70
2022/06/06 07:17:39;;;;;;;9.07;5.32;;;18.00;99.90;;;;;;5065766;28;20470;-71
2022/06/06 07:20:08;;;;;;;9.52;5.70;;;18.20;99.90;;;;;;5045605;28;20623;-71
2022/06/06 07:23:04;;;;;;;9.02;5.53;;;18.40;99.90;;;;;;5063012;28;20119;-71
2022/06/06 07:25:41;;;;;;;10.93;5.70;;;18.50;99.90;;;;;;5061474;28;20075;-71
2022/06/06 07:28:11;;;;;;;11.23;5.93;;;18.40;99.90;;;;;;5065887;28;20796;-72
2022/06/06 07:30:49;;;;;;;8.40;5.43;;;18.40;99.90;;;;;;5066627;28;20027;-71
2022/06/06 07:34:05;;;;;;;7.32;5.25;;;18.40;99.90;;;;;;5066724;28;20040;-71
2022/06/06 07:36:46;;;;;;;9.23;5.40;;;18.40;99.90;;;;;;5009129;28;20140;-71
2022/06/06 07:39:43;;;;;;;9.43;5.63;;;18.60;99.90;;;;;;5058817;28;20043;-71
2022/06/06 07:42:31;;;;;;;10.93;5.88;;;18.60;99.90;;;;;;5066561;28;20025;-71
2022/06/06 07:45:30;;;;;;;13.40;5.95;;;18.50;99.90;;;;;;5063534;28;20017;-71
2022/06/06 07:48:17;;;;;;;7.97;5.53;;;18.80;99.90;;;;;;5036466;28;20040;-72
2022/06/06 07:51:04;;;;;;;8.55;5.72;;;18.90;99.90;;;;;;5065264;28;20112;-72
2022/06/06 07:54:01;;;;;;;9.95;5.70;;;18.90;99.90;;;;;;5064974;28;20028;-72
2022/06/06 07:56:50;;;;;;;10.43;5.90;;;18.90;99.90;;;;;;5046562;28;20041;-72
2022/06/06 07:59:52;;;;;;;18.63;5.80;;;19.10;99.90;;;;;;5052685;28;20032;-71
2022/06/06 08:02:32;;;;;;;10.77;5.40;;;19.30;99.90;;;;;;4952946;28;20038;-73
2022/06/06 08:05:00;;;;;;;;;;;19.40;99.90;;;;;;5048017;28;20449;-73
2022/06/06 08:07:42;;;;;;;8.50;5.13;;;19.50;99.90;;;;;;5068438;28;20013;-71
2022/06/06 08:10:12;;;;;;;13.10;5.22;;;19.30;99.90;;;;;;5068006;28;20096;-71
2022/06/06 08:12:49;;;;;;;10.03;5.60;;;19.40;99.90;;;;;;5070781;28;20033;-71
2022/06/06 08:15:37;;;;;;;10.82;5.38;;;19.60;99.90;;;;;;5061612;28;20101;-73
2022/06/06 08:18:36;;;;;;;8.45;5.00;;;19.80;99.90;;;;;;5070113;28;20121;-72
2022/06/06 08:21:22;;;;;;;13.60;5.40;;;19.80;99.90;;;;;;5036596;28;20106;-71
2022/06/06 08:23:52;;;;;;;9.10;4.85;;;19.80;99.90;;;;;;5064645;28;20106;-71
2022/06/06 08:26:19;;;;;;;6.65;4.55;;;19.90;99.90;;;;;;5066063;28;20039;-72
2022/06/06 08:28:45;;;;;;;7.95;5.15;;;19.90;99.90;;;;;;5060672;28;20147;-71
2022/06/06 08:31:11;;;;;;;7.68;4.82;;;19.90;99.90;;;;;;5056634;28;20159;-72
2022/06/06 08:33:37;;;;;;;12.10;5.07;;;19.80;99.90;;;;;;5062910;28;20073;-72
2022/06/06 08:36:33;;;;;;;18.20;5.20;;;19.90;99.90;;;;;;5066673;28;20031;-72
2022/06/06 08:39:26;;;;;;;12.80;4.57;;;19.80;99.90;;;;;;5045589;28;20037;-72
2022/06/06 08:42:01;;;;;;;8.90;4.25;;;19.60;99.90;;;;;;5064553;28;20056;-72
2022/06/06 08:44:52;;;;;;;9.27;5.00;;;19.30;99.90;;;;;;5066865;28;20029;-71
2022/06/06 08:47:34;;;;;;;8.60;5.00;;;19.10;99.90;;;;;;5064309;28;20536;-72
2022/06/06 08:53:20;;;;;;;8.98;4.43;;;19.90;99.90;;;;;;5063468;28;20051;-72
2022/06/06 08:56:10;;;;;;;6.18;3.75;;;20.10;99.90;;;;;;5062032;28;20029;-72
2022/06/06 08:58:42;;;;;;;8.80;4.07;;;20.30;99.90;;;;;;5062956;28;20029;-73
2022/06/06 09:01:19;;;;;;;7.05;4.43;;;20.30;99.90;;;;;;5064762;28;20036;-72
2022/06/06 09:04:06;;;;;;;6.50;4.03;;;20.10;99.90;;;;;;5064385;28;20401;-71
2022/06/06 09:07:06;;;;;;;5.88;4.18;;;20.00;99.90;;;;;;5066657;28;20471;-71
2022/06/06 09:09:58;;;;;;;8.07;4.45;;;19.90;99.90;;;;;;5059590;28;20040;-71
2022/06/06 09:12:26;;;;;;;11.32;3.80;;;19.80;99.90;;;;;;5060757;28;20020;-72
2022/06/06 09:14:52;;;;;;;7.97;3.90;;;19.90;99.90;;;;;;5058824;28;20029;-72
2022/06/06 09:17:33;;;;;;;9.48;3.90;;;20.10;99.90;;;;;;5065572;28;20086;-72
2022/06/06 09:20:32;;;;;;;7.90;3.92;;;20.60;99.90;;;;;;5063460;28;20051;-70
2022/06/06 09:23:51;;;;;;;7.47;3.83;;;20.80;99.90;;;;;;5062467;28;20427;-69
2022/06/06 09:26:36;;;;;;;14.57;3.28;;;21.10;99.90;;;;;;4972848;28;20474;-65
2022/06/06 09:29:11;;;;;;;6.22;3.60;;;20.90;99.90;;;;;;5055746;28;20123;-72
2022/06/06 09:32:21;;;;;;;5.03;3.47;;;20.60;99.90;;;;;;5059365;28;20107;-77
2022/06/06 09:35:08;;;;;;;7.13;3.35;;;20.70;99.90;;;;;;5028767;28;20384;-73
2022/06/06 09:37:37;;;;;;;9.13;3.60;;;20.80;99.90;;;;;;5063816;28;20119;-67
2022/06/06 09:40:15;;;;;;;6.18;3.53;;;20.60;99.90;;;;;;5064552;28;20082;-69
2022/06/06 09:43:14;;;;;;;8.82;3.10;;;20.90;99.90;;;;;;5064570;28;20029;-69
2022/06/06 09:45:57;;;;;;;5.07;3.20;;;21.10;99.90;;;;;;5054727;28;20024;-69
2022/06/06 09:48:26;;;;;;;8.18;3.15;;;21.00;99.90;;;;;;5065892;28;20040;-68
2022/06/06 09:51:20;;;;;;;6.60;3.28;;;20.90;99.90;;;;;;5060111;28;20028;-69
2022/06/06 10:00:55;;;;;;;5.40;3.10;;;21.50;99.90;;;;;;5025223;28;20067;-71
2022/06/06 10:03:44;;;;;;;5.32;3.42;;;21.70;99.90;;;;;;5065132;28;20040;-71
2022/06/06 10:06:14;;;;;;;5.95;3.08;;;21.80;99.90;;;;;;5062936;28;20028;-70
2022/06/06 10:08:58;;;;;;;5.68;3.00;;;22.00;99.90;;;;;;5064275;28;20107;-71
2022/06/06 10:11:42;;;;;;;3.63;2.85;;;22.10;99.90;;;;;;5058082;28;20371;-70
2022/06/06 10:14:19;;;;;;;7.45;3.33;;;22.00;99.90;;;;;;5057705;28;20036;-71
2022/06/06 10:17:01;;;;;;;7.82;3.42;;;21.90;99.90;;;;;;5061472;28;20682;-71
2022/06/06 10:19:48;;;;;;;5.20;3.22;;;22.10;99.90;;;;;;5065083;28;20032;-71
2022/06/06 10:22:47;;;;;;;5.10;3.05;;;22.10;99.90;;;;;;5066265;28;20055;-71
2022/06/06 10:25:28;;;;;;;4.50;3.10;;;22.10;99.90;;;;;;5058987;28;20028;-72
2022/06/06 10:28:17;;;;;;;10.02;3.20;;;22.10;99.90;;;;;;5064573;28;20058;-72
2022/06/06 10:30:54;;;;;;;8.88;3.60;;;22.20;99.90;;;;;;5062162;28;20074;-71
2022/06/06 10:33:20;;;;;;;6.55;3.47;;;22.30;99.90;;;;;;5061690;28;20036;-71
2022/06/06 10:36:19;;;;;;;5.15;3.10;;;22.60;99.90;;;;;;5067107;28;20039;-71
2022/06/06 10:38:45;;;;;;;6.43;3.05;;;22.30;99.90;;;;;;5067270;28;20041;-71
2022/06/06 10:41:32;;;;;;;5.88;3.20;;;22.20;99.90;;;;;;5062177;28;20040;-71
2022/06/06 10:44:17;;;;;;;5.82;3.03;;;22.20;99.90;;;;;;5065517;28;20115;-72
2022/06/06 10:46:58;;;;;;;5.68;3.38;;;22.40;99.90;;;;;;5064281;28;20485;-71
2022/06/06 10:50:10;;;;;;;6.30;3.35;;;22.60;99.90;;;;;;5053623;28;20025;-70
2022/06/06 10:53:00;;;;;;;5.13;3.05;;;22.20;99.90;;;;;;5041485;28;20040;-70
2022/06/06 10:55:26;;;;;;;7.10;3.38;;;22.50;99.90;;;;;;5067036;28;20028;-70
2022/06/06 10:58:13;;;;;;;9.82;3.10;;;22.80;99.90;;;;;;5062230;28;20040;-71
2022/06/06 11:00:39;;;;;;;4.70;2.60;;;22.80;99.90;;;;;;5066522;28;20021;-71
2022/06/06 11:03:31;;;;;;;3.35;2.20;;;22.40;99.90;;;;;;5062115;28;20050;-71
2022/06/06 11:06:16;;;;;;;7.07;3.00;;;22.20;99.90;;;;;;5059332;28;20077;-72
2022/06/06 11:08:56;;;;;;;4.03;2.58;;;22.00;99.90;;;;;;5064595;28;20058;-72
2022/06/06 11:11:34;;;;;;;;;;;21.70;99.90;;;;;;5044162;28;20062;-71
2022/06/06 11:14:03;;;;;;;4.70;2.63;;;21.60;99.90;;;;;;5047497;28;19913;-72
2022/06/06 11:16:51;;;;;;;3.95;2.58;;;21.90;99.90;;;;;;5065196;28;20463;-71
2022/06/06 11:19:39;;;;;;;6.55;3.05;;;22.40;99.90;;;;;;5056487;28;20029;-71
2022/06/06 11:22:11;;;;;;;7.05;3.35;;;22.70;99.90;;;;;;5065345;28;20047;-70
2022/06/06 11:24:47;;;;;;;7.80;2.60;;;22.90;99.90;;;;;;5060041;28;20060;-71
2022/06/06 11:27:40;;;;;;;4.82;2.55;;;22.90;99.90;;;;;;5058730;28;20104;-70
2022/06/06 11:30:27;;;;;;;6.30;2.80;;;22.80;99.90;;;;;;5050187;28;20029;-71
2022/06/06 11:33:29;;;;;;;2.95;2.40;;;23.20;99.90;;;;;;5052330;28;20487;-70
2022/06/06 11:36:09;;;;;;;9.05;2.60;;;23.50;99.90;;;;;;5057761;28;20029;-70
2022/06/06 11:38:56;;;;;;;5.53;2.70;;;23.60;99.90;;;;;;5055173;28;20041;-71
2022/06/06 11:41:40;;;;;;;5.22;2.78;;;23.30;99.90;;;;;;5062850;28;20206;-71
2022/06/06 11:44:15;;;;;;;6.07;2.80;;;23.40;99.90;;;;;;5058743;28;20037;-72
2022/06/06 11:47:08;;;;;;;4.95;2.47;;;23.50;99.90;;;;;;5068033;28;20105;-71
2022/06/06 11:49:56;;;;;;;3.53;2.30;;;23.00;99.90;;;;;;5068814;28;20040;-70
2022/06/06 11:53:03;;;;;;;5.32;2.60;;;22.20;99.90;;;;;;5060709;28;20806;-70
2022/06/06 11:55:45;;;;;;;3.30;2.40;;;22.00;99.90;;;;;;5043192;28;20033;-70
2022/06/06 11:58:40;;;;;;;5.45;2.28;;;22.10;99.90;;;;;;5060999;28;20487;-71
2022/06/06 12:01:43;;;;;;;5.70;2.33;;;22.20;99.90;;;;;;5061211;28;20729;-71
2022/06/06 12:04:51;;;;;;;4.03;2.47;;;22.60;99.90;;;;;;5062280;28;20386;-71
2022/06/06 12:07:34;;;;;;;3.92;2.25;;;22.60;99.90;;;;;;5062690;28;20044;-71
2022/06/06 12:10:08;;;;;;;6.90;2.53;;;22.60;99.90;;;;;;5069215;28;20082;-73
2022/06/06 12:13:21;;;;;;;4.78;2.33;;;23.10;99.90;;;;;;5066867;28;20026;-69
2022/06/06 12:15:55;;;;;;;3.40;2.40;;;23.00;99.90;;;;;;5063624;28;20102;-71
2022/06/06 12:18:45;;;;;;;3.90;2.40;;;22.90;99.90;;;;;;5058592;28;20024;-71
2022/06/06 12:21:39;;;;;;;4.05;2.92;;;23.00;99.90;;;;;;5066750;28;20490;-71
2022/06/06 12:24:26;;;;;;;3.47;2.47;;;23.20;99.90;;;;;;5062627;28;20032;-72
2022/06/06 12:26:51;;;;;;;6.63;2.53;;;23.30;99.90;;;;;;5064809;28;20111;-71
2022/06/06 12:29:38;;;;;;;6.60;2.30;;;23.60;99.90;;;;;;5061981;28;20115;-71
2022/06/06 12:32:26;;;;;;;5.47;2.15;;;23.80;99.90;;;;;;5063255;28;20063;-72
2022/06/06 12:35:11;;;;;;;5.30;2.78;;;23.70;99.90;;;;;;5067733;28;20098;-71
2022/06/06 12:37:49;;;;;;;7.07;2.22;;;23.30;99.90;;;;;;5065623;28;20114;-72
2022/06/06 12:40:54;;;;;;;3.90;2.30;;;23.50;99.90;;;;;;5065451;28;20028;-71
2022/06/06 12:43:20;;;;;;;8.18;2.38;;;23.80;99.90;;;;;;5062191;28;20035;-70
2022/06/06 12:46:14;;;;;;;3.35;2.10;;;24.00;99.90;;;;;;5065822;28;20479;-71
2022/06/06 12:48:49;;;;;;;7.30;2.30;;;23.60;99.90;;;;;;5036348;28;20579;-73
2022/06/06 12:51:30;;;;;;;6.43;2.53;;;23.60;99.90;;;;;;5063027;28;20463;-71
2022/06/06 12:54:16;;;;;;;5.60;4.10;;;23.40;99.90;;;;;;5062082;28;20033;-71
2022/06/06 12:57:03;;;;;;;5.78;3.17;;;23.60;99.70;;;;;;5037870;28;20429;-70
2022/06/06 12:59:41;;;;;;;5.70;2.17;;;23.40;99.80;;;;;;5067290;28;20032;-71
2022/06/06 13:02:33;;;;;;;3.03;2.22;;;23.50;99.00;;;;;;5066008;28;20078;-72
2022/06/06 13:05:19;;;;;;;12.73;2.45;;;23.70;99.00;;;;;;5064618;28;20040;-71
2022/06/06 13:08:32;;;;;;;3.50;2.53;;;23.70;97.60;;;;;;5057630;28;20116;-70
2022/06/06 13:11:17;;;;;;;5.57;3.08;;;23.60;98.30;;;;;;4986905;28;20122;-72
2022/06/06 13:13:58;;;;;;;5.32;2.47;;;24.00;99.90;;;;;;4974706;28;20045;-71
2022/06/06 13:16:32;;;;;;;;;;;24.00;99.90;;;;;;4981299;28;20101;-71
2022/06/06 13:19:33;;;;;;;6.40;2.70;;;24.00;99.90;;;;;;4954890;28;19917;-71
2022/06/06 13:22:02;;;;;;;4.55;2.63;;;23.70;99.90;;;;;;4979014;28;20035;-73
2022/06/06 13:24:56;;;;;;;4.97;2.55;;;23.40;99.90;;;;;;4969175;28;20216;-71
2022/06/06 13:27:31;;;;;;;3.30;2.47;;;23.50;99.90;;;;;;4976797;28;20038;-72
2022/06/06 13:30:26;;;;;;;7.60;3.72;;;23.80;99.90;;;;;;4986061;28;20050;-72
2022/06/06 13:33:33;;;;;;;6.00;3.03;;;24.30;99.90;;;;;;4983147;28;20058;-72
2022/06/06 13:36:39;;;;;;;5.95;2.70;;;24.30;99.90;;;;;;4967110;28;20042;-72
2022/06/06 13:39:19;;;;;;;3.03;2.55;;;24.80;99.90;;;;;;4976241;28;20086;-73
2022/06/06 13:41:57;;;;;;;7.13;2.45;;;25.30;99.90;;;;;;5026582;28;20044;-72
2022/06/06 13:44:47;;;;;;;6.45;2.38;;;25.50;99.00;;;;;;5066811;28;20044;-73
2022/06/06 13:47:51;;;;;;;3.58;2.53;;;25.40;99.90;;;;;;5067902;28;20037;-72
2022/06/06 13:50:27;;;;;;;7.15;3.03;;;25.00;99.20;;;;;;5068290;28;20126;-72
2022/06/06 13:53:25;;;;;;;5.95;2.72;;;24.60;99.90;;;;;;5059151;28;20041;-72
2022/06/06 13:56:38;;;;;;;5.85;2.40;;;24.40;99.90;;;;;;5020317;28;20044;-72
2022/06/06 13:59:21;;;;;;;3.83;2.40;;;24.60;99.20;;;;;;5036298;28;20094;-72
2022/06/06 14:02:11;;;;;;;9.40;3.80;;;25.00;99.90;;;;;;5065096;28;20036;-72
2022/06/06 14:05:06;;;;;;;4.00;2.83;;;25.10;99.90;;;;;;5066796;28;20040;-73
2022/06/06 14:08:09;;;;;;;3.63;2.45;;;25.20;99.90;;;;;;5063651;28;20037;-73
2022/06/06 14:10:52;;;;;;;4.20;2.50;;;25.00;97.50;;;;;;5059130;28;20082;-73
2022/06/06 14:13:22;;;;;;;4.88;2.72;;;24.50;97.90;;;;;;5062245;28;20116;-72
2022/06/06 14:15:48;;;;;;;5.05;2.75;;;24.20;99.90;;;;;;5066939;28;20068;-73
2022/06/06 14:18:26;;;;;;;7.65;2.30;;;24.00;95.90;;;;;;5063065;28;20079;-72